Time;durP1;ratioP1;P1;durP2;ratioP2;P2;SDS_P1;SDS_P2;PMS_P1;PMS_P2;Temp;Humidity;BMP_temperature;BMP_pressure;BME280_temperature;BME280_humidity;BME280_pressure;Samples;Min_cycle;Max_cycle;Signal;HPM_P1;HPM_P2
2024/03/18 00:02:52;;;;;;;7.67;6.43;;;;;;;;;;6074877;23;20401;-85
2024/03/18 00:08:49;;;;;;;6.57;5.50;;;;;;;;;;6116303;23;20456;-88
2024/03/18 00:11:55;;;;;;;7.17;6.10;;;;;;;;;;6040243;23;20403;-85
2024/03/18 00:14:43;;;;;;;8.50;5.67;;;;;;;;;;6129533;23;20462;-85
2024/03/18 00:17:13;;;;;;;7.17;6.47;;;;;;;;;;6110200;23;20435;-87
2024/03/18 00:19:57;;;;;;;7.73;6.10;;;;;;;;;;6113521;23;20470;-88
2024/03/18 00:22:50;;;;;;;;;;;;;;;;;;;;;
2024/03/18 00:32:55;;;;;;;6.67;5.37;;;;;;;;;;6124076;23;20467;-84
2024/03/18 00:38:36;;;;;;;9.03;6.70;;;;;;;;;;6060161;23;20425;-85
2024/03/18 00:44:22;;;;;;;11.63;6.10;;;;;;;;;;6120630;23;20422;-85
2024/03/18 00:46:49;;;;;;;7.83;6.43;;;;;;;;;;6094309;23;20447;-86
2024/03/18 00:52:25;;;;;;;12.00;7.73;;;;;;;;;;6096701;23;20443;-86
2024/03/18 00:55:10;;;;;;;9.33;6.60;;;;;;;;;;6098679;23;20832;-86
2024/03/18 01:00:24;;;;;;;8.97;7.40;;;;;;;;;;6090014;23;20756;-85
2024/03/18 01:02:53;;;;;;;10.63;7.10;;;;;;;;;;6040678;23;20742;-87
2024/03/18 01:05:26;;;;;;;10.80;7.00;;;;;;;;;;6067774;23;20405;-86
2024/03/18 01:08:02;;;;;;;10.13;6.83;;;;;;;;;;6069003;23;20421;-86
2024/03/18 01:10:48;;;;;;;8.83;7.00;;;;;;;;;;6051860;23;20407;-87
2024/03/18 01:13:34;;;;;;;9.80;7.07;;;;;;;;;;6018963;23;20982;-86
2024/03/18 01:16:13;;;;;;;8.10;6.67;;;;;;;;;;6060492;23;20404;-85
2024/03/18 01:18:47;;;;;;;10.10;6.87;;;;;;;;;;6061665;23;20408;-86
2024/03/18 01:21:24;;;;;;;10.23;7.20;;;;;;;;;;6063846;23;20399;-88
2024/03/18 01:23:54;;;;;;;8.90;7.13;;;;;;;;;;6065527;23;20424;-88
2024/03/18 01:26:26;;;;;;;7.60;6.80;;;;;;;;;;6066299;23;20409;-88
2024/03/18 01:29:13;;;;;;;7.50;6.23;;;;;;;;;;6066595;23;20405;-84
2024/03/18 01:32:02;;;;;;;11.47;6.60;;;;;;;;;;6066373;23;20412;-85
2024/03/18 01:34:29;;;;;;;9.50;6.93;;;;;;;;;;6047668;23;20423;-88
2024/03/18 01:37:03;;;;;;;7.07;6.07;;;;;;;;;;6057625;23;20573;-87
2024/03/18 01:39:32;;;;;;;10.00;7.00;;;;;;;;;;6059644;23;20397;-88
2024/03/18 01:42:14;;;;;;;7.17;6.13;;;;;;;;;;6064310;23;20409;-89
2024/03/18 01:44:59;;;;;;;9.07;6.63;;;;;;;;;;6060746;23;20625;-88
2024/03/18 01:47:29;;;;;;;8.00;6.50;;;;;;;;;;6053581;23;20429;-86
2024/03/18 01:49:59;;;;;;;9.57;6.77;;;;;;;;;;6059817;23;20898;-88
2024/03/18 01:52:25;;;;;;;7.90;6.97;;;;;;;;;;6070341;23;20428;-88
2024/03/18 01:54:56;;;;;;;9.43;6.60;;;;;;;;;;6066481;23;20604;-88
2024/03/18 01:57:35;;;;;;;;;;;;;;;;;;;;;
2024/03/18 02:00:38;;;;;;;8.80;6.70;;;;;;;;;;5989571;24;21102;-86
2024/03/18 02:03:13;;;;;;;7.43;6.23;;;;;;;;;;6060910;23;20471;-87
2024/03/18 02:06:01;;;;;;;7.23;6.17;;;;;;;;;;6104988;23;20427;-87
2024/03/18 02:08:39;;;;;;;6.60;5.60;;;;;;;;;;6110842;23;20432;-88
2024/03/18 02:11:06;;;;;;;7.33;6.20;;;;;;;;;;6064726;23;20415;-87
2024/03/18 02:13:51;;;;;;;8.83;6.13;;;;;;;;;;6082176;23;20441;-88
2024/03/18 02:16:30;;;;;;;6.53;5.50;;;;;;;;;;6087537;23;20958;-88
2024/03/18 02:22:38;;;;;;;8.90;6.40;;;;;;;;;;6080563;23;20483;-86
2024/03/18 02:28:16;;;;;;;9.17;8.00;;;;;;;;;;6108395;23;20490;-86
2024/03/18 02:30:54;;;;;;;8.63;6.20;;;;;;;;;;6124062;23;20420;-88
2024/03/18 02:33:42;;;;;;;;;;;;;;;;;;;;;
2024/03/18 02:36:18;;;;;;;8.30;6.87;;;;;;;;;;6135295;23;20423;-87
2024/03/18 02:39:00;;;;;;;;;;;;;;;;;;;;;
2024/03/18 02:41:51;;;;;;;11.27;6.80;;;;;;;;;;6125839;23;20408;-89
2024/03/18 02:44:20;;;;;;;10.33;6.83;;;;;;;;;;6108466;23;20408;-89
2024/03/18 02:46:54;;;;;;;8.43;6.67;;;;;;;;;;6108666;23;20508;-88
2024/03/18 02:49:20;;;;;;;9.40;7.67;;;;;;;;;;6107691;23;20404;-86
2024/03/18 02:51:55;;;;;;;7.70;6.37;;;;;;;;;;6161063;23;20399;-86
2024/03/18 02:54:30;;;;;;;11.00;8.60;;;;;;;;;;6111059;23;20395;-87
2024/03/18 02:57:06;;;;;;;9.00;7.30;;;;;;;;;;6109857;23;20425;-85
2024/03/18 02:59:38;;;;;;;9.07;7.27;;;;;;;;;;6106816;23;20438;-88
2024/03/18 03:02:10;;;;;;;9.10;7.43;;;;;;;;;;6110653;23;20939;-89
2024/03/18 03:04:54;;;;;;;9.80;7.40;;;;;;;;;;6133038;23;20427;-87
2024/03/18 03:07:30;;;;;;;9.97;7.07;;;;;;;;;;6118019;23;20427;-87
2024/03/18 03:09:57;;;;;;;10.30;7.40;;;;;;;;;;6115843;23;20409;-85
2024/03/18 03:12:26;;;;;;;12.90;9.40;;;;;;;;;;6117853;23;20452;-88
2024/03/18 03:14:59;;;;;;;9.83;7.07;;;;;;;;;;6119850;23;20451;-88
2024/03/18 03:17:29;;;;;;;11.00;7.60;;;;;;;;;;6113729;23;20519;-87
2024/03/18 03:20:18;;;;;;;10.67;8.80;;;;;;;;;;6116638;23;20431;-89
2024/03/18 03:23:11;;;;;;;11.30;7.90;;;;;;;;;;6132511;23;20391;-89
2024/03/18 03:25:43;;;;;;;11.33;8.87;;;;;;;;;;6115369;23;20473;-89
2024/03/18 03:28:46;;;;;;;12.30;9.10;;;;;;;;;;6080836;23;20436;-89
2024/03/18 03:31:23;;;;;;;13.00;8.87;;;;;;;;;;6034500;23;20421;-89
2024/03/18 03:33:52;;;;;;;11.10;7.97;;;;;;;;;;6055505;23;20461;-89
2024/03/18 03:36:21;;;;;;;10.40;7.77;;;;;;;;;;6098196;23;20402;-89
2024/03/18 03:39:04;;;;;;;9.50;8.47;;;;;;;;;;6117712;23;20388;-88
2024/03/18 03:41:39;;;;;;;8.90;7.83;;;;;;;;;;6116727;23;20402;-87
2024/03/18 03:44:20;;;;;;;11.53;8.73;;;;;;;;;;6118919;23;20461;-89
2024/03/18 03:47:03;;;;;;;12.17;9.00;;;;;;;;;;6116592;23;20499;-88
2024/03/18 03:49:45;;;;;;;12.97;8.23;;;;;;;;;;6109169;23;20388;-85
2024/03/18 03:52:17;;;;;;;12.20;8.90;;;;;;;;;;6108970;23;20454;-89
2024/03/18 03:54:50;;;;;;;14.00;10.00;;;;;;;;;;6116513;23;20410;-87
2024/03/18 03:57:31;;;;;;;11.60;8.77;;;;;;;;;;6116253;23;20424;-87
2024/03/18 04:00:03;;;;;;;11.40;7.50;;;;;;;;;;6117426;23;20392;-88
2024/03/18 04:02:38;;;;;;;10.90;8.57;;;;;;;;;;6118700;23;20677;-88
2024/03/18 04:05:05;;;;;;;11.03;8.13;;;;;;;;;;6116250;23;20602;-87
2024/03/18 04:07:33;;;;;;;11.60;8.13;;;;;;;;;;6098216;23;20424;-85
2024/03/18 04:10:05;;;;;;;11.60;8.30;;;;;;;;;;6096152;23;21277;-85
2024/03/18 04:12:42;;;;;;;11.47;9.57;;;;;;;;;;6145776;23;20451;-86
2024/03/18 04:15:18;;;;;;;14.57;8.40;;;;;;;;;;6148220;23;20403;-86
2024/03/18 04:18:08;;;;;;;10.40;8.40;;;;;;;;;;6096037;23;20420;-85
2024/03/18 04:21:01;;;;;;;12.93;9.17;;;;;;;;;;6126291;23;20432;-87
2024/03/18 04:23:38;;;;;;;14.50;9.30;;;;;;;;;;6124203;23;20741;-86
2024/03/18 04:26:17;;;;;;;14.33;9.20;;;;;;;;;;6100031;23;20396;-88
2024/03/18 04:28:58;;;;;;;12.50;8.97;;;;;;;;;;6102028;23;20416;-85
2024/03/18 04:31:29;;;;;;;12.17;9.57;;;;;;;;;;6100659;23;20435;-86
2024/03/18 04:37:06;;;;;;;10.83;8.77;;;;;;;;;;6148575;23;20431;-88
2024/03/18 04:39:33;;;;;;;14.73;10.13;;;;;;;;;;6099416;23;20407;-87
2024/03/18 04:42:05;;;;;;;11.83;8.60;;;;;;;;;;6100467;23;20409;-85
2024/03/18 04:44:36;;;;;;;11.67;9.30;;;;;;;;;;6098529;23;20404;-86
2024/03/18 04:47:05;;;;;;;12.93;9.10;;;;;;;;;;6100941;23;20436;-86
2024/03/18 04:49:45;;;;;;;10.90;9.10;;;;;;;;;;6101471;23;20407;-87
2024/03/18 04:52:19;;;;;;;13.23;9.23;;;;;;;;;;6102153;23;20447;-87
2024/03/18 04:54:51;;;;;;;12.40;9.40;;;;;;;;;;6102060;23;20714;-86
2024/03/18 04:57:19;;;;;;;11.73;8.57;;;;;;;;;;6109556;23;20428;-89
2024/03/18 05:00:00;;;;;;;12.50;8.50;;;;;;;;;;6116392;23;20422;-84
2024/03/18 05:02:34;;;;;;;14.63;8.67;;;;;;;;;;6109854;23;20427;-88
2024/03/18 05:05:06;;;;;;;18.90;10.47;;;;;;;;;;6105547;23;20420;-86
2024/03/18 05:07:37;;;;;;;12.63;9.50;;;;;;;;;;6104377;23;20424;-87
2024/03/18 05:10:16;;;;;;;;;;;;;;;;;;;;;
2024/03/18 05:13:19;;;;;;;14.40;10.00;;;;;;;;;;6145899;23;20569;-87
2024/03/18 05:15:49;;;;;;;12.97;9.70;;;;;;;;;;6145113;23;20483;-87
2024/03/18 05:18:30;;;;;;;11.33;8.20;;;;;;;;;;6114064;23;20423;-86
2024/03/18 05:21:20;;;;;;;13.97;8.40;;;;;;;;;;6104148;23;20412;-86
2024/03/18 05:23:47;;;;;;;11.53;8.60;;;;;;;;;;6108485;23;20404;-86
2024/03/18 05:26:17;;;;;;;11.07;8.97;;;;;;;;;;6113969;23;20400;-89
2024/03/18 05:28:47;;;;;;;10.77;7.93;;;;;;;;;;6159287;23;20399;-87
2024/03/18 05:31:33;;;;;;;9.93;7.50;;;;;;;;;;6082199;23;20416;-90
2024/03/18 05:34:11;;;;;;;11.23;7.50;;;;;;;;;;6090786;23;20514;-86
2024/03/18 05:36:40;;;;;;;11.80;8.43;;;;;;;;;;6111469;23;20462;-88
2024/03/18 05:39:23;;;;;;;12.07;8.00;;;;;;;;;;6110201;23;20407;-87
2024/03/18 05:42:01;;;;;;;11.50;8.23;;;;;;;;;;6105040;23;20411;-87
2024/03/18 05:44:40;;;;;;;9.23;7.83;;;;;;;;;;6106189;23;20418;-85
2024/03/18 05:47:19;;;;;;;10.33;7.40;;;;;;;;;;6110555;23;20420;-88
2024/03/18 05:49:51;;;;;;;11.10;7.70;;;;;;;;;;6118151;23;20387;-89
2024/03/18 05:52:30;;;;;;;11.23;7.20;;;;;;;;;;6113749;23;20463;-87
2024/03/18 05:55:07;;;;;;;11.13;7.67;;;;;;;;;;6102106;23;21201;-85
2024/03/18 05:57:34;;;;;;;9.27;7.83;;;;;;;;;;6101667;23;20424;-87
2024/03/18 06:00:13;;;;;;;9.60;7.80;;;;;;;;;;6102546;23;20414;-86
2024/03/18 06:02:59;;;;;;;8.80;7.53;;;;;;;;;;6101970;23;20418;-87
2024/03/18 06:05:34;;;;;;;8.30;7.17;;;;;;;;;;6099113;23;20412;-87
2024/03/18 06:08:04;;;;;;;9.87;7.33;;;;;;;;;;6101915;23;20420;-88
2024/03/18 06:10:36;;;;;;;8.73;7.17;;;;;;;;;;6101394;23;20411;-87
2024/03/18 06:13:09;;;;;;;11.87;8.50;;;;;;;;;;6099572;23;20447;-89
2024/03/18 06:15:53;;;;;;;8.50;6.50;;;;;;;;;;6095429;23;20416;-87
2024/03/18 06:18:36;;;;;;;9.63;7.37;;;;;;;;;;6074694;23;20428;-86
2024/03/18 06:21:17;;;;;;;12.00;8.83;;;;;;;;;;6102922;23;20402;-85
2024/03/18 06:24:07;;;;;;;8.57;6.40;;;;;;;;;;6098886;23;20426;-85
2024/03/18 06:27:15;;;;;;;8.40;6.60;;;;;;;;;;6123515;23;20438;-87
2024/03/18 06:29:56;;;;;;;10.53;8.00;;;;;;;;;;6102253;23;20427;-87
2024/03/18 06:32:25;;;;;;;9.77;7.07;;;;;;;;;;6099379;23;20451;-86
2024/03/18 06:34:57;;;;;;;12.07;7.77;;;;;;;;;;6099852;23;20410;-87
2024/03/18 06:37:27;;;;;;;12.57;7.50;;;;;;;;;;6101829;23;20446;-88
2024/03/18 06:40:05;;;;;;;9.20;6.70;;;;;;;;;;6106240;23;20470;-85
2024/03/18 06:42:38;;;;;;;11.60;7.30;;;;;;;;;;6102038;23;20404;-88
2024/03/18 06:45:11;;;;;;;12.10;8.10;;;;;;;;;;6098397;23;20408;-87
2024/03/18 06:47:40;;;;;;;8.70;6.50;;;;;;;;;;6101776;23;20441;-86
2024/03/18 06:50:07;;;;;;;11.50;7.90;;;;;;;;;;6099191;23;20411;-86
2024/03/18 06:52:39;;;;;;;10.60;7.43;;;;;;;;;;6095553;23;20443;-86
2024/03/18 06:55:15;;;;;;;11.50;8.50;;;;;;;;;;6100486;23;20400;-87
2024/03/18 06:57:47;;;;;;;12.73;8.47;;;;;;;;;;6096695;23;20439;-86
2024/03/18 07:00:16;;;;;;;10.17;7.53;;;;;;;;;;6098105;23;20470;-88
2024/03/18 07:02:59;;;;;;;16.43;8.70;;;;;;;;;;6102317;23;20410;-86
2024/03/18 07:05:38;;;;;;;9.13;7.20;;;;;;;;;;6100691;23;20422;-86
2024/03/18 07:08:07;;;;;;;11.10;8.20;;;;;;;;;;6096938;23;20432;-87
2024/03/18 07:10:40;;;;;;;10.97;8.10;;;;;;;;;;6095492;23;20407;-85
2024/03/18 07:13:14;;;;;;;10.63;8.47;;;;;;;;;;6088286;23;20450;-85
2024/03/18 07:15:43;;;;;;;10.33;7.10;;;;;;;;;;6092207;23;20439;-86
2024/03/18 07:18:12;;;;;;;8.90;7.47;;;;;;;;;;6097637;23;20431;-86
2024/03/18 07:20:45;;;;;;;8.30;7.40;;;;;;;;;;6099722;23;20412;-88
2024/03/18 07:23:16;;;;;;;8.20;7.20;;;;;;;;;;6100223;23;20408;-85
2024/03/18 07:25:48;;;;;;;7.33;6.03;;;;;;;;;;6098945;23;20408;-86
2024/03/18 07:28:18;;;;;;;10.43;6.97;;;;;;;;;;6096102;23;20420;-87
2024/03/18 07:30:47;;;;;;;10.47;7.67;;;;;;;;;;6099523;23;20434;-86
2024/03/18 07:33:21;;;;;;;10.47;7.33;;;;;;;;;;6096586;23;20458;-84
2024/03/18 07:35:51;;;;;;;8.90;7.00;;;;;;;;;;6104787;23;20977;-87
2024/03/18 07:38:43;;;;;;;8.80;7.07;;;;;;;;;;6102213;23;20539;-88
2024/03/18 07:41:22;;;;;;;10.10;8.10;;;;;;;;;;6099220;23;20450;-85
2024/03/18 07:43:55;;;;;;;10.57;7.43;;;;;;;;;;6097849;23;20407;-88
2024/03/18 07:46:31;;;;;;;9.63;7.83;;;;;;;;;;6099077;23;20403;-87
2024/03/18 07:49:01;;;;;;;9.27;7.00;;;;;;;;;;6097448;23;20411;-86
2024/03/18 07:51:31;;;;;;;9.37;7.33;;;;;;;;;;6089243;23;20718;-85
2024/03/18 07:54:01;;;;;;;8.53;7.63;;;;;;;;;;6094868;23;20443;-89
2024/03/18 07:56:31;;;;;;;8.70;7.23;;;;;;;;;;6097204;23;20999;-88
2024/03/18 07:59:14;;;;;;;9.00;7.47;;;;;;;;;;6097696;23;20408;-89
2024/03/18 08:01:40;;;;;;;8.43;7.50;;;;;;;;;;6110398;23;20419;-88
2024/03/18 08:04:09;;;;;;;10.83;8.17;;;;;;;;;;6113084;23;20408;-90
2024/03/18 08:06:50;;;;;;;9.40;7.90;;;;;;;;;;6111613;23;20502;-90
2024/03/18 08:09:26;;;;;;;10.87;7.80;;;;;;;;;;6113797;23;20447;-88
2024/03/18 08:12:00;;;;;;;11.00;8.30;;;;;;;;;;6110627;23;20498;-88
2024/03/18 08:14:53;;;;;;;9.30;8.30;;;;;;;;;;6123276;23;20471;-87
2024/03/18 08:17:42;;;;;;;10.87;8.67;;;;;;;;;;6149621;23;20410;-89
2024/03/18 08:20:17;;;;;;;24.63;9.90;;;;;;;;;;6125564;23;20466;-85
2024/03/18 08:22:50;;;;;;;9.93;7.20;;;;;;;;;;6124041;23;20471;-86
2024/03/18 08:25:17;;;;;;;11.70;8.53;;;;;;;;;;6120248;23;20404;-88
2024/03/18 08:28:02;;;;;;;8.57;7.70;;;;;;;;;;6110317;23;20420;-85
2024/03/18 08:30:37;;;;;;;10.53;7.73;;;;;;;;;;6121315;23;20568;-88
2024/03/18 08:33:15;;;;;;;10.83;8.20;;;;;;;;;;6121105;23;20539;-89
2024/03/18 08:35:56;;;;;;;11.37;9.20;;;;;;;;;;6122865;23;20471;-86
2024/03/18 08:38:23;;;;;;;12.83;10.13;;;;;;;;;;6121902;23;20495;-88
2024/03/18 08:40:56;;;;;;;10.43;8.67;;;;;;;;;;6120141;23;20483;-88
2024/03/18 08:43:36;;;;;;;13.77;8.37;;;;;;;;;;6119393;23;20402;-89
2024/03/18 08:46:06;;;;;;;9.37;8.33;;;;;;;;;;6108790;23;20396;-87
2024/03/18 08:48:42;;;;;;;11.43;9.07;;;;;;;;;;6103384;23;20430;-86
2024/03/18 08:51:14;;;;;;;12.30;9.37;;;;;;;;;;6102413;23;20411;-87
2024/03/18 08:53:48;;;;;;;12.60;9.73;;;;;;;;;;6101777;23;20448;-86
2024/03/18 08:56:17;;;;;;;9.90;8.73;;;;;;;;;;6100913;23;20403;-88
2024/03/18 09:01:59;;;;;;;11.57;9.43;;;;;;;;;;6156252;23;20403;-86
2024/03/18 09:04:40;;;;;;;12.30;9.13;;;;;;;;;;6101544;23;20403;-86
2024/03/18 09:10:17;;;;;;;9.97;8.93;;;;;;;;;;6148278;23;20885;-87
2024/03/18 09:12:52;;;;;;;10.90;8.90;;;;;;;;;;6096310;23;20456;-87
2024/03/18 09:15:34;;;;;;;11.00;8.93;;;;;;;;;;6100008;23;20400;-88
2024/03/18 09:18:05;;;;;;;13.83;9.30;;;;;;;;;;6097160;23;20428;-87
2024/03/18 09:20:44;;;;;;;;;;;;;;;;;;;;;
2024/03/18 09:23:37;;;;;;;9.80;8.70;;;;;;;;;;6146251;23;20412;-86
2024/03/18 09:26:04;;;;;;;12.33;8.60;;;;;;;;;;6074861;23;20408;-87
2024/03/18 09:28:37;;;;;;;10.53;8.53;;;;;;;;;;6093080;23;20427;-88
2024/03/18 09:31:10;;;;;;;13.23;9.30;;;;;;;;;;6095785;23;20426;-87
2024/03/18 09:33:54;;;;;;;10.83;9.20;;;;;;;;;;6100682;23;20489;-87
2024/03/18 09:36:47;;;;;;;9.30;8.30;;;;;;;;;;6099383;23;20412;-88
2024/03/18 09:39:19;;;;;;;10.43;7.47;;;;;;;;;;6101876;23;20402;-88
2024/03/18 09:41:51;;;;;;;9.03;8.10;;;;;;;;;;6102883;23;20406;-88
2024/03/18 09:44:24;;;;;;;11.20;8.23;;;;;;;;;;6104005;23;20403;-86
2024/03/18 09:46:59;;;;;;;8.73;6.50;;;;;;;;;;6100783;23;20424;-90
2024/03/18 09:50:02;;;;;;;6.73;5.77;;;;;;;;;;6124246;23;21116;-87
2024/03/18 09:52:48;;;;;;;9.33;6.80;;;;;;;;;;6123977;23;20458;-86
2024/03/18 09:55:35;;;;;;;8.27;6.90;;;;;;;;;;6098902;23;20407;-88
2024/03/18 09:58:11;;;;;;;5.93;5.33;;;;;;;;;;6077382;23;20489;-87
2024/03/18 10:00:54;;;;;;;8.50;6.10;;;;;;;;;;6097818;23;20395;-88
2024/03/18 10:03:23;;;;;;;5.60;4.60;;;;;;;;;;6098284;23;20430;-88
2024/03/18 10:05:59;;;;;;;8.13;4.27;;;;;;;;;;6072868;23;20836;-90
2024/03/18 10:08:39;;;;;;;4.67;4.17;;;;;;;;;;6098670;23;20427;-87
2024/03/18 10:11:23;;;;;;;5.37;4.20;;;;;;;;;;6076760;23;20407;-85
2024/03/18 10:13:55;;;;;;;4.70;3.60;;;;;;;;;;6076005;23;20447;-85
2024/03/18 10:16:32;;;;;;;6.40;4.13;;;;;;;;;;6075072;23;20404;-87
2024/03/18 10:19:00;;;;;;;6.50;2.97;;;;;;;;;;6074969;23;20404;-89
2024/03/18 10:21:34;;;;;;;8.13;3.00;;;;;;;;;;6071227;23;20408;-87
2024/03/18 10:24:08;;;;;;;5.83;2.50;;;;;;;;;;6070670;23;20412;-87
2024/03/18 10:27:02;;;;;;;3.20;1.80;;;;;;;;;;6097167;23;20904;-85
2024/03/18 10:29:55;;;;;;;;;;;;;;;;;;;;;
2024/03/18 10:32:31;;;;;;;3.80;1.67;;;;;;;;;;6117039;23;20456;-86
2024/03/18 10:35:21;;;;;;;4.40;2.40;;;;;;;;;;6076106;23;20404;-86
2024/03/18 10:38:16;;;;;;;2.43;1.93;;;;;;;;;;6074779;23;20424;-85
2024/03/18 10:40:50;;;;;;;3.27;1.67;;;;;;;;;;6069064;23;20404;-87
2024/03/18 10:46:37;;;;;;;5.27;2.27;;;;;;;;;;6091508;23;20801;-85
2024/03/18 10:49:15;;;;;;;2.47;1.57;;;;;;;;;;6075157;23;20944;-87
2024/03/18 10:51:46;;;;;;;5.57;2.30;;;;;;;;;;6114505;23;20408;-87
2024/03/18 10:54:21;;;;;;;5.37;2.30;;;;;;;;;;6067733;23;20463;-87
2024/03/18 10:56:50;;;;;;;3.13;1.90;;;;;;;;;;6074319;23;20431;-85
2024/03/18 10:59:25;;;;;;;2.67;2.10;;;;;;;;;;6070143;23;21258;-86
2024/03/18 11:01:59;;;;;;;3.37;1.83;;;;;;;;;;6073015;23;21276;-86
2024/03/18 11:04:28;;;;;;;6.10;2.17;;;;;;;;;;6073517;23;20399;-85
2024/03/18 11:07:08;;;;;;;3.93;2.10;;;;;;;;;;6075921;23;20794;-86
2024/03/18 11:09:52;;;;;;;4.27;2.47;;;;;;;;;;6076106;23;20928;-86
2024/03/18 11:12:40;;;;;;;2.80;1.83;;;;;;;;;;6074992;23;20889;-87
2024/03/18 11:15:12;;;;;;;4.80;2.20;;;;;;;;;;6076471;23;20410;-86
2024/03/18 11:18:00;;;;;;;4.43;1.70;;;;;;;;;;6069752;23;20425;-85
2024/03/18 11:20:51;;;;;;;3.73;1.80;;;;;;;;;;6078188;23;20778;-85
2024/03/18 11:27:00;;;;;;;3.33;1.80;;;;;;;;;;6091279;23;20415;-87
2024/03/18 11:29:46;;;;;;;2.07;1.20;;;;;;;;;;6084783;23;20396;-88
2024/03/18 11:32:18;;;;;;;7.90;2.23;;;;;;;;;;6075018;23;20402;-87
2024/03/18 11:34:58;;;;;;;2.77;1.60;;;;;;;;;;6081526;23;20403;-87
2024/03/18 11:37:47;;;;;;;2.47;1.23;;;;;;;;;;6085935;23;20424;-87
2024/03/18 11:40:41;;;;;;;2.33;1.60;;;;;;;;;;6081485;23;20401;-86
2024/03/18 11:43:19;;;;;;;6.70;1.90;;;;;;;;;;6083748;23;20717;-86
2024/03/18 11:45:49;;;;;;;2.57;1.40;;;;;;;;;;6059977;23;20402;-85
2024/03/18 11:48:21;;;;;;;3.83;1.70;;;;;;;;;;6076589;23;20464;-85
2024/03/18 11:51:03;;;;;;;2.13;1.40;;;;;;;;;;6103229;23;20411;-86
2024/03/18 11:53:50;;;;;;;4.73;2.77;;;;;;;;;;6128844;23;20436;-87
2024/03/18 11:56:20;;;;;;;5.40;1.70;;;;;;;;;;6115395;23;20879;-88
2024/03/18 11:59:02;;;;;;;3.23;1.70;;;;;;;;;;6113590;23;20400;-87
2024/03/18 12:01:39;;;;;;;3.60;1.47;;;;;;;;;;6135095;23;20400;-87
2024/03/18 12:04:19;;;;;;;1.33;1.03;;;;;;;;;;6119917;23;20484;-85
2024/03/18 12:06:59;;;;;;;4.87;2.30;;;;;;;;;;6142447;23;20517;-87
2024/03/18 12:09:40;;;;;;;1.83;1.73;;;;;;;;;;6116659;23;20465;-86
2024/03/18 12:12:11;;;;;;;4.23;1.93;;;;;;;;;;6106347;23;20407;-89
2024/03/18 12:14:37;;;;;;;5.60;1.80;;;;;;;;;;6132822;23;20428;-88
2024/03/18 12:17:22;;;;;;;4.10;2.07;;;;;;;;;;6126404;23;20480;-86
2024/03/18 12:20:00;;;;;;;2.40;1.47;;;;;;;;;;6108541;23;20479;-87
2024/03/18 12:22:48;;;;;;;3.40;1.70;;;;;;;;;;6122147;23;20397;-85
2024/03/18 12:28:50;;;;;;;3.00;1.47;;;;;;;;;;6104060;23;20429;-87
2024/03/18 12:31:23;;;;;;;4.47;2.20;;;;;;;;;;6105625;23;20405;-87
2024/03/18 12:33:55;;;;;;;4.97;2.17;;;;;;;;;;6106700;23;20827;-86
2024/03/18 12:36:48;;;;;;;2.67;1.90;;;;;;;;;;6132701;23;20409;-86
2024/03/18 12:39:15;;;;;;;2.30;2.07;;;;;;;;;;6084209;23;20491;-88
2024/03/18 12:41:43;;;;;;;3.97;1.60;;;;;;;;;;6130440;23;20401;-86
2024/03/18 12:44:13;;;;;;;3.13;1.83;;;;;;;;;;6120560;23;20433;-86
2024/03/18 12:46:43;;;;;;;2.60;2.13;;;;;;;;;;6109104;23;20435;-88
2024/03/18 12:49:13;;;;;;;3.23;2.63;;;;;;;;;;6132818;23;20406;-87
2024/03/18 12:51:46;;;;;;;3.60;2.50;;;;;;;;;;6114667;23;20399;-87
2024/03/18 12:54:18;;;;;;;3.70;2.60;;;;;;;;;;6132882;23;20501;-86
2024/03/18 12:56:48;;;;;;;6.20;2.70;;;;;;;;;;6111096;23;20428;-86
2024/03/18 12:59:25;;;;;;;5.33;2.50;;;;;;;;;;6114786;23;20396;-86
2024/03/18 13:02:13;;;;;;;4.50;2.90;;;;;;;;;;6141358;23;20396;-87
2024/03/18 13:04:45;;;;;;;6.87;2.90;;;;;;;;;;6139087;23;20409;-86
2024/03/18 13:07:16;;;;;;;2.40;2.20;;;;;;;;;;6117674;23;20446;-88
2024/03/18 13:09:45;;;;;;;3.30;2.77;;;;;;;;;;6130470;23;20743;-86
2024/03/18 13:12:13;;;;;;;3.83;2.97;;;;;;;;;;6135164;23;20410;-87
2024/03/18 13:14:40;;;;;;;3.23;2.67;;;;;;;;;;6135463;23;20782;-87
2024/03/18 13:17:07;;;;;;;4.87;3.10;;;;;;;;;;6130758;23;20434;-87
2024/03/18 13:19:37;;;;;;;3.07;2.23;;;;;;;;;;6113209;23;20404;-87
2024/03/18 13:22:06;;;;;;;6.03;2.53;;;;;;;;;;6144011;23;20403;-86
2024/03/18 13:24:52;;;;;;;3.53;2.30;;;;;;;;;;6136792;23;20458;-87
2024/03/18 13:27:19;;;;;;;4.97;2.90;;;;;;;;;;6133988;23;20434;-86
2024/03/18 13:29:51;;;;;;;4.40;2.80;;;;;;;;;;6113310;23;20443;-86
2024/03/18 13:32:24;;;;;;;5.73;2.57;;;;;;;;;;6052001;23;20400;-86
2024/03/18 13:34:53;;;;;;;3.23;2.90;;;;;;;;;;6117045;23;20404;-84
2024/03/18 13:37:37;;;;;;;4.80;2.23;;;;;;;;;;6137870;23;20427;-85
2024/03/18 13:40:11;;;;;;;4.50;2.67;;;;;;;;;;6112346;23;20407;-87
2024/03/18 13:42:38;;;;;;;3.90;2.53;;;;;;;;;;6112188;23;20912;-86
2024/03/18 13:45:09;;;;;;;3.13;2.03;;;;;;;;;;6111530;23;20411;-86
2024/03/18 13:47:38;;;;;;;5.30;2.87;;;;;;;;;;6130035;23;20436;-87
2024/03/18 13:50:06;;;;;;;4.13;2.50;;;;;;;;;;6106192;23;20411;-86
2024/03/18 13:52:34;;;;;;;4.40;2.47;;;;;;;;;;6133604;23;20451;-85
2024/03/18 13:55:06;;;;;;;3.87;2.67;;;;;;;;;;6117955;23;20392;-86
2024/03/18 13:57:33;;;;;;;3.93;2.43;;;;;;;;;;6116545;23;20447;-85
2024/03/18 14:00:06;;;;;;;3.20;2.43;;;;;;;;;;6118635;23;20404;-87
2024/03/18 14:02:33;;;;;;;4.97;2.73;;;;;;;;;;6116053;23;20459;-85
2024/03/18 14:05:05;;;;;;;3.90;2.33;;;;;;;;;;6113739;23;20419;-86
2024/03/18 14:07:34;;;;;;;4.87;3.13;;;;;;;;;;6111314;23;20424;-87
2024/03/18 14:10:11;;;;;;;6.93;2.60;;;;;;;;;;6111402;23;20474;-85
2024/03/18 14:12:42;;;;;;;5.30;2.90;;;;;;;;;;6121510;23;20432;-87
2024/03/18 14:15:22;;;;;;;7.90;3.27;;;;;;;;;;6146046;23;20473;-91
2024/03/18 14:17:55;;;;;;;5.30;3.07;;;;;;;;;;6145451;23;20508;-85
2024/03/18 14:20:39;;;;;;;4.87;3.37;;;;;;;;;;6132067;23;20400;-88
2024/03/18 14:23:09;;;;;;;4.33;3.93;;;;;;;;;;6111456;23;20412;-87
2024/03/18 14:25:41;;;;;;;5.80;4.73;;;;;;;;;;6087326;23;20460;-86
2024/03/18 14:28:13;;;;;;;5.40;4.90;;;;;;;;;;6107723;23;20433;-88
2024/03/18 14:30:50;;;;;;;5.30;4.80;;;;;;;;;;6108533;23;20403;-87
2024/03/18 14:33:16;;;;;;;6.77;4.90;;;;;;;;;;6107916;23;20973;-86
2024/03/18 14:35:50;;;;;;;5.77;3.73;;;;;;;;;;6108749;23;20409;-86
2024/03/18 14:38:31;;;;;;;7.53;3.87;;;;;;;;;;6106184;23;20424;-87
2024/03/18 14:41:03;;;;;;;7.10;4.07;;;;;;;;;;6127614;23;21302;-85
2024/03/18 14:43:33;;;;;;;5.77;4.97;;;;;;;;;;6109758;23;20411;-85
2024/03/18 14:46:39;;;;;;;5.43;4.20;;;;;;;;;;6106555;23;20411;-88
2024/03/18 14:49:02;;;;;;;4.73;3.90;;;;;;;;;;6078266;23;20413;-87
2024/03/18 14:51:29;;;;;;;5.83;3.67;;;;;;;;;;6084602;23;20409;-87
2024/03/18 14:53:56;;;;;;;6.50;3.87;;;;;;;;;;6083396;23;20448;-85
2024/03/18 14:56:28;;;;;;;5.00;3.63;;;;;;;;;;6085400;23;20416;-86
2024/03/18 14:59:06;;;;;;;7.60;4.50;;;;;;;;;;6059416;23;20405;-85
2024/03/18 15:01:38;;;;;;;7.13;5.40;;;;;;;;;;6058215;23;20459;-85
2024/03/18 15:04:11;;;;;;;6.00;4.63;;;;;;;;;;6056896;23;20426;-85
2024/03/18 15:06:39;;;;;;;6.03;4.40;;;;;;;;;;6057081;23;20772;-86
2024/03/18 15:09:08;;;;;;;12.53;5.40;;;;;;;;;;6082143;23;20437;-86
2024/03/18 15:11:39;;;;;;;6.20;4.80;;;;;;;;;;6092839;23;20403;-89
2024/03/18 15:14:11;;;;;;;5.17;4.37;;;;;;;;;;6074487;23;20448;-88
2024/03/18 15:16:46;;;;;;;7.90;4.40;;;;;;;;;;6097146;23;20504;-87
2024/03/18 15:19:18;;;;;;;5.53;4.17;;;;;;;;;;6097573;23;20471;-86
2024/03/18 15:21:51;;;;;;;5.70;4.17;;;;;;;;;;6058719;23;20411;-86
2024/03/18 15:24:27;;;;;;;7.70;4.53;;;;;;;;;;6077447;23;20409;-86
2024/03/18 15:29:43;;;;;;;8.27;4.70;;;;;;;;;;6079825;23;20968;-86
2024/03/18 15:32:20;;;;;;;7.23;4.80;;;;;;;;;;6056793;23;20747;-88
2024/03/18 15:34:46;;;;;;;7.57;4.40;;;;;;;;;;6083937;23;20399;-85
2024/03/18 15:37:28;;;;;;;6.93;4.80;;;;;;;;;;6060128;23;20493;-85
2024/03/18 15:39:59;;;;;;;7.10;4.20;;;;;;;;;;6080625;23;20451;-86
2024/03/18 15:42:31;;;;;;;6.83;4.67;;;;;;;;;;6082111;23;20407;-86
2024/03/18 15:45:28;;;;;;;7.07;5.00;;;;;;;;;;6083035;23;20409;-86
2024/03/18 15:47:57;;;;;;;8.77;5.60;;;;;;;;;;6028243;23;20423;-86
2024/03/18 15:50:24;;;;;;;8.27;5.00;;;;;;;;;;6095027;23;20461;-87
2024/03/18 15:52:51;;;;;;;6.90;4.70;;;;;;;;;;6093308;23;20454;-88
2024/03/18 15:55:23;;;;;;;5.23;4.13;;;;;;;;;;6090980;23;20401;-85
2024/03/18 15:57:49;;;;;;;4.43;4.03;;;;;;;;;;6094311;23;20414;-88
2024/03/18 16:00:32;;;;;;;4.80;4.13;;;;;;;;;;6070395;23;20457;-87
2024/03/18 16:08:42;;;;;;;8.87;4.43;;;;;;;;;;6128930;23;20538;-87
2024/03/18 16:11:29;;;;;;;6.50;4.20;;;;;;;;;;6112879;23;20410;-85
2024/03/18 16:13:57;;;;;;;7.53;4.00;;;;;;;;;;6107221;23;20455;-87
2024/03/18 16:16:27;;;;;;;6.47;3.50;;;;;;;;;;6081724;23;20410;-86
2024/03/18 16:18:56;;;;;;;3.80;3.33;;;;;;;;;;6056037;23;20405;-85
2024/03/18 16:21:25;;;;;;;6.03;4.03;;;;;;;;;;6052087;23;20397;-85
2024/03/18 16:23:59;;;;;;;7.23;4.60;;;;;;;;;;6055368;23;20415;-85
2024/03/18 16:26:40;;;;;;;8.63;4.50;;;;;;;;;;6055881;23;20430;-86
2024/03/18 16:29:43;;;;;;;9.57;4.60;;;;;;;;;;6015918;23;20398;-86
2024/03/18 16:32:12;;;;;;;9.07;4.27;;;;;;;;;;6013223;23;20409;-85
2024/03/18 16:34:47;;;;;;;6.80;4.57;;;;;;;;;;6055986;23;20449;-85
2024/03/18 16:37:13;;;;;;;6.50;4.07;;;;;;;;;;6055345;23;20425;-86